Time;durP1;ratioP1;P1;durP2;ratioP2;P2;SDS_P1;SDS_P2;PMS_P1;PMS_P2;Temp;Humidity;BMP_temperature;BMP_pressure;BME280_temperature;BME280_humidity;BME280_pressure;Samples;Min_cycle;Max_cycle;Signal;HPM_P1;HPM_P2
2024/02/12 00:04:51;;;;;;;4.72;3.47;;;;;;;14.10;57.79;99485.47;10369949;28;20029;-61
2024/02/12 00:09:51;;;;;;;4.60;2.88;;;;;;;14.09;57.64;99483.09;10383195;28;20390;-61
2024/02/12 00:14:51;;;;;;;6.33;3.27;;;;;;;14.09;57.42;99488.41;10369514;28;20079;-61
2024/02/12 00:19:52;;;;;;;4.78;3.17;;;;;;;14.08;57.75;99500.16;10370276;28;20620;-61
2024/02/12 00:24:52;;;;;;;4.53;3.27;;;;;;;14.08;58.20;99516.94;10369518;28;20056;-60
2024/02/12 00:29:52;;;;;;;5.90;3.80;;;;;;;14.07;57.53;99523.34;10369046;28;20362;-61
2024/02/12 00:34:54;;;;;;;4.35;3.28;;;;;;;14.06;57.73;99529.78;10368860;28;20276;-61
2024/02/12 00:39:58;;;;;;;4.75;3.20;;;;;;;14.05;57.96;99528.19;10367980;28;20052;-61
2024/02/12 00:44:58;;;;;;;5.05;3.60;;;;;;;14.05;58.00;99536.19;10367510;28;20028;-61
2024/02/12 00:49:59;;;;;;;4.03;3.07;;;;;;;14.05;57.66;99546.84;10368496;28;20484;-61
2024/02/12 00:54:59;;;;;;;5.40;3.75;;;;;;;14.04;58.01;99555.94;10374684;28;20280;-61
2024/02/12 01:00:02;;;;;;;4.97;3.60;;;;;;;14.03;57.94;99565.81;10395659;28;20028;-61
2024/02/12 01:05:02;;;;;;;5.55;4.10;;;;;;;14.02;57.63;99568.78;10407976;28;20283;-60
2024/02/12 01:10:04;;;;;;;4.13;3.13;;;;;;;14.02;58.07;99579.44;10407956;28;20044;-61
2024/02/12 01:15:06;;;;;;;5.38;3.78;;;;;;;14.01;57.54;99578.63;10368575;28;20030;-61
2024/02/12 01:20:11;;;;;;;5.53;3.53;;;;;;;14.00;57.82;99579.72;10367590;28;20053;-61
2024/02/12 01:25:12;;;;;;;3.90;2.85;;;;;;;14.00;58.29;99582.38;10395208;28;20501;-61
2024/02/12 01:30:13;;;;;;;6.25;3.72;;;;;;;13.99;57.44;99591.47;10405254;28;20086;-61
2024/02/12 01:35:13;;;;;;;4.30;3.38;;;;;;;14.00;57.22;99600.25;10365978;28;20104;-61
2024/02/12 01:40:14;;;;;;;4.97;3.53;;;;;;;13.98;57.55;99600.56;10383280;28;20021;-61
2024/02/12 01:45:16;;;;;;;5.43;3.80;;;;;;;13.98;57.53;99599.75;10356603;28;20284;-61
2024/02/12 01:50:17;;;;;;;4.35;2.88;;;;;;;13.98;58.03;99602.44;10364904;28;20068;-61
2024/02/12 01:55:21;;;;;;;4.45;3.00;;;;;;;13.97;57.63;99614.13;10364866;28;20072;-61
2024/02/12 02:00:23;;;;;;;3.90;2.92;;;;;;;13.96;57.67;99607.22;10365610;28;20021;-60
2024/02/12 02:05:25;;;;;;;6.15;3.35;;;;;;;13.96;57.73;99612.56;10366168;28;20061;-61
2024/02/12 02:10:25;;;;;;;4.40;3.22;;;;;;;13.95;58.01;99617.09;10376385;28;20493;-61
2024/02/12 02:15:26;;;;;;;4.00;3.23;;;;;;;13.95;58.18;99618.97;10365457;28;20269;-61
2024/02/12 02:20:26;;;;;;;4.88;3.42;;;;;;;13.94;57.28;99620.84;10365498;28;20973;-60
2024/02/12 02:25:27;;;;;;;4.18;2.95;;;;;;;13.94;58.07;99625.38;10369194;28;20044;-62
2024/02/12 02:30:27;;;;;;;6.18;3.65;;;;;;;13.93;58.23;99634.47;10386334;28;20026;-61
2024/02/12 02:35:27;;;;;;;4.57;2.83;;;;;;;13.93;57.94;99640.59;10364997;28;20036;-61
2024/02/12 02:40:28;;;;;;;4.95;3.35;;;;;;;13.92;57.93;99639.00;10365365;28;20759;-60
2024/02/12 02:45:28;;;;;;;4.55;3.22;;;;;;;13.92;58.09;99640.88;10347556;28;20539;-61
2024/02/12 02:50:32;;;;;;;4.50;3.17;;;;;;;13.90;57.83;99646.50;10363719;28;20034;-61
2024/02/12 02:55:32;;;;;;;4.47;3.58;;;;;;;13.91;58.16;99652.63;10363874;28;20034;-60
2024/02/12 03:00:33;;;;;;;5.80;3.63;;;;;;;13.90;57.62;99648.38;10363498;28;20026;-60
2024/02/12 03:05:34;;;;;;;4.28;3.65;;;;;;;13.89;57.90;99652.13;10365080;28;20469;-60
2024/02/12 03:10:34;;;;;;;4.70;3.17;;;;;;;13.89;57.65;99654.78;10377103;28;20050;-61
2024/02/12 03:15:35;;;;;;;4.05;2.72;;;;;;;13.88;57.76;99662.00;10362932;28;20034;-61
2024/02/12 03:20:37;;;;;;;5.45;2.78;;;;;;;13.88;57.58;99674.53;10367350;28;20018;-61
2024/02/12 03:25:37;;;;;;;4.72;3.08;;;;;;;13.88;57.64;99680.66;10371852;28;20025;-61
2024/02/12 03:30:37;;;;;;;3.80;2.83;;;;;;;13.87;58.09;99673.75;10384325;28;20036;-61
2024/02/12 03:35:38;;;;;;;4.07;2.90;;;;;;;13.86;57.41;99682.03;10384433;28;20648;-61
2024/02/12 03:40:38;;;;;;;5.45;3.38;;;;;;;13.87;58.12;99680.94;10371148;28;20280;-61
2024/02/12 03:45:44;;;;;;;5.60;3.15;;;;;;;13.85;57.59;99691.06;10371424;28;20080;-61
2024/02/12 04:01:28;;;;;;;4.82;3.40;;;;;;;13.84;57.57;99695.59;10370837;28;20022;-61
2024/02/12 04:06:34;;;;;;;5.03;3.53;;;;;;;13.83;57.59;99712.69;10370165;28;20165;-61
2024/02/12 04:11:39;;;;;;;5.55;3.22;;;;;;;13.83;58.36;99730.53;10391340;28;20082;-61
2024/02/12 04:16:39;;;;;;;5.30;3.95;;;;;;;13.82;57.76;99732.41;10411038;28;20514;-61
2024/02/12 04:21:42;;;;;;;5.05;3.88;;;;;;;13.82;57.88;99739.59;10410409;28;20064;-61
2024/02/12 04:26:42;;;;;;;6.75;4.18;;;;;;;13.80;58.12;99739.09;10410401;28;20104;-61
2024/02/12 04:31:44;;;;;;;9.20;4.57;;;;;;;13.79;57.83;99735.66;10420472;28;20052;-61
2024/02/12 04:36:44;;;;;;;5.88;3.63;;;;;;;13.78;58.56;99744.72;10368321;28;20342;-61
2024/02/12 04:41:45;;;;;;;6.00;3.97;;;;;;;13.78;57.79;99744.72;10368923;28;20132;-61
2024/02/12 04:46:45;;;;;;;5.70;3.95;;;;;;;13.78;57.86;99754.59;10367888;28;20470;-61
2024/02/12 04:51:46;;;;;;;4.87;3.73;;;;;;;13.78;57.65;99751.94;10368301;28;20087;-61
2024/02/12 04:56:47;;;;;;;5.72;4.07;;;;;;;13.77;57.89;99758.34;10368229;28;20339;-61
2024/02/12 05:01:47;;;;;;;5.28;3.60;;;;;;;13.76;57.73;99757.56;10367736;28;20474;-61
2024/02/12 05:06:48;;;;;;;6.78;4.35;;;;;;;13.74;57.30;99781.81;10368283;28;20030;-61
2024/02/12 05:11:49;;;;;;;5.25;3.85;;;;;;;13.74;57.43;99789.00;10393679;28;20474;-61
2024/02/12 05:16:50;;;;;;;5.95;3.95;;;;;;;13.73;57.52;99776.75;10367005;28;20505;-61
2024/02/12 05:27:09;;;;;;;6.85;5.30;;;;;;;13.72;58.13;99788.47;10385083;28;20038;-60
2024/02/12 05:32:09;;;;;;;5.87;4.37;;;;;;;13.70;57.74;99780.00;10389190;28;20026;-61
2024/02/12 05:37:10;;;;;;;5.75;3.67;;;;;;;13.71;57.59;99778.91;10367129;28;20287;-61
2024/02/12 05:42:11;;;;;;;6.22;4.47;;;;;;;13.70;57.54;99780.78;10366881;28;20510;-61
2024/02/12 05:47:12;;;;;;;5.93;4.10;;;;;;;13.69;57.24;99783.72;10366917;28;20025;-61
2024/02/12 05:52:12;;;;;;;4.50;3.80;;;;;;;13.68;58.28;99784.81;10366382;28;20440;-61
2024/02/12 05:57:13;;;;;;;7.00;4.57;;;;;;;13.68;56.91;99784.81;10366707;28;20017;-61
2024/02/12 06:02:13;;;;;;;6.53;4.00;;;;;;;13.66;57.67;99782.44;10366122;28;20751;-61
2024/02/12 06:07:14;;;;;;;8.03;4.93;;;;;;;13.66;57.86;99784.31;10366693;28;20053;-61
2024/02/12 06:12:14;;;;;;;6.13;3.67;;;;;;;13.67;58.12;99804.53;10376279;28;20806;-61
2024/02/12 06:17:18;;;;;;;7.10;4.47;;;;;;;13.66;57.74;99808.28;10364247;28;20335;-60
2024/02/12 06:22:19;;;;;;;7.55;5.25;;;;;;;13.64;57.54;99811.22;10365366;28;20414;-60
2024/02/12 06:27:19;;;;;;;6.20;4.35;;;;;;;13.64;58.20;99819.22;10365374;28;20029;-60
2024/02/12 06:32:19;;;;;;;8.10;5.10;;;;;;;13.63;57.85;99828.28;10377248;28;20038;-61
2024/02/12 06:37:20;;;;;;;6.77;4.03;;;;;;;13.63;57.47;99835.50;10365110;28;20061;-61
2024/02/12 06:42:20;;;;;;;5.80;4.18;;;;;;;13.63;57.46;99835.50;10363508;28;20730;-61
2024/02/12 06:47:21;;;;;;;8.00;4.97;;;;;;;13.62;57.70;99844.56;10363875;28;20408;-61
2024/02/12 06:52:22;;;;;;;6.80;5.38;;;;;;;13.61;57.79;99845.63;10364843;28;20347;-61
2024/02/12 06:57:24;;;;;;;6.32;4.05;;;;;;;13.61;57.45;99856.25;10368885;28;20439;-62
2024/02/12 07:02:24;;;;;;;7.20;5.28;;;;;;;13.60;57.33;99865.34;10373710;28;20075;-61
2024/02/12 07:07:24;;;;;;;7.50;5.33;;;;;;;13.59;57.95;99877.06;10375202;28;20046;-62
2024/02/12 07:12:24;;;;;;;7.90;5.75;;;;;;;13.59;57.63;99891.19;10384985;28;20695;-61
2024/02/12 07:17:25;;;;;;;6.73;4.67;;;;;;;13.57;57.74;99884.56;10373246;28;20342;-62
2024/02/12 07:22:25;;;;;;;6.53;3.93;;;;;;;13.58;57.77;99902.13;10372661;28;20814;-60
2024/02/12 07:27:26;;;;;;;7.47;4.50;;;;;;;13.57;57.92;99904.00;10373348;28;20342;-61
2024/02/12 07:32:26;;;;;;;5.45;4.00;;;;;;;13.57;57.84;99908.53;10374716;28;20825;-60
2024/02/12 07:37:26;;;;;;;6.43;4.73;;;;;;;13.57;57.62;99914.66;10372275;28;20025;-61
2024/02/12 07:42:27;;;;;;;7.27;4.70;;;;;;;13.56;57.64;99920.25;10372885;28;20281;-61
2024/02/12 07:47:28;;;;;;;7.22;4.88;;;;;;;13.56;57.58;99931.69;10373084;28;20675;-61
2024/02/12 07:52:28;;;;;;;8.43;5.53;;;;;;;13.54;57.80;99941.84;10372850;28;20570;-62
2024/02/12 07:57:29;;;;;;;6.60;4.63;;;;;;;13.54;57.70;99946.38;10372625;28;20038;-61
2024/02/12 08:02:29;;;;;;;6.87;5.13;;;;;;;13.54;58.07;99955.16;10372332;28;20299;-61
2024/02/12 08:07:29;;;;;;;6.37;4.70;;;;;;;13.53;57.88;99961.56;10373953;28;20290;-61
2024/02/12 08:12:30;;;;;;;8.23;5.40;;;;;;;13.53;57.85;99963.44;10393759;28;20289;-62
2024/02/12 08:17:30;;;;;;;5.50;3.30;;;;;;;13.53;57.93;99961.56;10370345;28;20276;-61
2024/02/12 08:22:31;;;;;;;5.78;4.13;;;;;;;13.54;57.82;99973.00;10372099;28;20469;-61
2024/02/12 08:27:32;;;;;;;6.63;4.55;;;;;;;13.54;58.27;99975.66;10370325;28;20358;-61
2024/02/12 08:32:33;;;;;;;6.50;4.40;;;;;;;13.52;57.88;99991.94;10370263;28;20034;-61
2024/02/12 08:37:35;;;;;;;7.07;4.47;;;;;;;13.52;58.07;99994.59;10372028;28;20025;-61
2024/02/12 08:42:38;;;;;;;5.80;4.57;;;;;;;13.51;57.91;99995.69;10369745;28;20112;-61
2024/02/12 08:47:38;;;;;;;6.00;3.97;;;;;;;13.51;57.44;100003.66;10369534;28;20029;-62
2024/02/12 08:52:38;;;;;;;4.82;3.65;;;;;;;13.51;57.56;100016.19;10370338;28;20026;-61
2024/02/12 08:57:41;;;;;;;7.28;4.90;;;;;;;13.50;58.34;100026.03;10385236;28;20033;-61
2024/02/12 09:02:41;;;;;;;6.55;4.35;;;;;;;13.49;57.67;100029.75;10411165;28;20477;-61
2024/02/12 09:07:42;;;;;;;6.07;3.93;;;;;;;13.50;58.60;100044.69;10410841;28;20044;-61
2024/02/12 09:12:43;;;;;;;5.22;3.75;;;;;;;13.50;57.17;100047.34;10378325;28;20300;-61
2024/02/12 09:17:47;;;;;;;5.82;3.97;;;;;;;13.49;58.02;100052.94;10369293;28;20025;-61
2024/02/12 09:22:47;;;;;;;4.78;3.65;;;;;;;13.50;58.02;100065.16;10369141;28;20017;-61
2024/02/12 09:27:47;;;;;;;5.57;3.80;;;;;;;13.49;57.68;100071.56;10363129;28;20021;-61
2024/02/12 09:32:48;;;;;;;5.90;3.63;;;;;;;13.49;58.79;100075.03;10381445;28;20295;-60
2024/02/12 09:37:49;;;;;;;6.63;4.25;;;;;;;13.48;57.88;100085.97;10407245;28;20791;-60
2024/02/12 09:42:53;;;;;;;5.72;3.97;;;;;;;13.48;58.22;100088.63;10407929;28;20052;-61
2024/02/12 09:47:54;;;;;;;7.50;3.53;;;;;;;13.46;58.72;100105.69;10408664;28;20048;-61
2024/02/12 09:52:58;;;;;;;5.88;3.72;;;;;;;13.48;58.04;100110.72;10408791;28;20100;-60
2024/02/12 09:57:59;;;;;;;4.90;3.15;;;;;;;13.49;58.61;100124.84;10408336;28;20350;-62
2024/02/12 10:02:59;;;;;;;5.32;3.97;;;;;;;13.48;58.19;100128.56;10408511;28;20049;-61
2024/02/12 10:08:01;;;;;;;6.22;3.35;;;;;;;13.45;58.70;100129.94;10407343;28;20483;-61
2024/02/12 10:13:07;;;;;;;6.80;4.40;;;;;;;13.46;58.81;100136.84;10371999;28;20026;-61
2024/02/12 10:18:10;;;;;;;7.18;4.57;;;;;;;13.46;57.61;100147.50;10366362;28;20053;-60
2024/02/12 10:23:15;;;;;;;3.72;3.05;;;;;;;13.45;57.80;100140.56;10365866;28;20022;-61
2024/02/12 10:28:16;;;;;;;6.95;4.00;;;;;;;13.45;58.38;100149.34;10365341;28;20118;-61
2024/02/12 10:33:16;;;;;;;5.57;3.72;;;;;;;13.44;58.37;100153.09;10367523;28;20783;-61
2024/02/12 10:38:16;;;;;;;4.13;3.17;;;;;;;13.41;58.46;100151.00;10366859;28;20389;-61
2024/02/12 10:43:17;;;;;;;4.22;3.13;;;;;;;13.43;58.75;100166.69;10354591;28;20145;-61
2024/02/12 10:48:18;;;;;;;5.72;3.65;;;;;;;13.44;58.87;100168.28;10367605;28;20044;-61
2024/02/12 10:53:18;;;;;;;6.28;4.13;;;;;;;13.49;58.91;100183.44;10366767;28;20108;-61
2024/02/12 10:58:19;;;;;;;5.15;2.80;;;;;;;13.49;59.01;100178.91;10366465;28;20037;-61
2024/02/12 11:03:28;;;;;;;5.55;3.38;;;;;;;13.50;58.92;100177.84;10373775;28;20047;-61
2024/02/12 11:08:28;;;;;;;4.32;3.38;;;;;;;13.52;58.90;100194.34;10392708;28;20455;-61
2024/02/12 11:13:39;;;;;;;5.18;3.60;;;;;;;13.50;58.54;100201.00;10381902;28;20068;-61
2024/02/12 11:18:39;;;;;;;4.78;3.03;;;;;;;13.50;58.61;100201.00;10366223;28;20292;-61
2024/02/12 11:23:40;;;;;;;6.80;3.37;;;;;;;13.49;58.21;100202.06;10365035;28;20481;-61
2024/02/12 11:28:52;;;;;;;5.38;3.15;;;;;;;13.46;59.27;100201.56;10366102;28;20279;-61
2024/02/12 11:33:52;;;;;;;4.85;3.00;;;;;;;13.48;59.03;100201.28;10365740;28;20369;-61
2024/02/12 11:38:53;;;;;;;4.18;2.58;;;;;;;13.51;59.07;100210.59;10357723;28;20088;-60
2024/02/12 11:43:53;;;;;;;5.68;3.55;;;;;;;13.50;58.46;100215.13;10373561;28;20026;-61
2024/02/12 11:49:06;;;;;;;3.92;2.72;;;;;;;13.51;59.12;100215.94;10371866;28;20029;-61
2024/02/12 11:54:11;;;;;;;3.92;2.63;;;;;;;13.50;59.35;100211.66;10369779;28;20121;-61
2024/02/12 11:59:13;;;;;;;3.85;2.58;;;;;;;13.49;58.94;100215.38;10358905;28;20033;-61
2024/02/12 12:04:13;;;;;;;5.10;2.80;;;;;;;13.46;58.86;100214.88;10372439;28;20026;-61
2024/02/12 12:09:19;;;;;;;4.77;2.33;;;;;;;13.44;59.18;100214.34;10360296;28;20042;-62
2024/02/12 12:14:20;;;;;;;3.40;2.30;;;;;;;13.55;58.41;100223.09;10371841;28;20318;-60
2024/02/12 12:19:21;;;;;;;4.65;3.10;;;;;;;13.55;59.10;100217.75;10372080;28;20025;-61
2024/02/12 12:24:21;;;;;;;3.47;2.97;;;;;;;13.56;59.04;100223.88;10371630;28;20034;-61
2024/02/12 12:29:22;;;;;;;3.30;2.13;;;;;;;13.56;59.09;100224.69;10371779;28;20746;-61
2024/02/12 12:34:23;;;;;;;4.97;2.88;;;;;;;13.55;58.87;100230.28;10372634;28;20080;-61
2024/02/12 12:39:25;;;;;;;3.55;2.58;;;;;;;13.57;59.03;100228.94;10371285;28;20536;-61
2024/02/12 12:44:26;;;;;;;3.72;2.67;;;;;;;13.56;59.18;100235.34;10371066;28;20029;-61
2024/02/12 12:49:27;;;;;;;4.65;2.65;;;;;;;13.55;59.55;100238.28;10370541;28;20445;-61
2024/02/12 12:54:27;;;;;;;3.80;2.30;;;;;;;13.53;59.26;100256.41;10369954;28;20465;-61
2024/02/12 12:59:27;;;;;;;3.23;2.13;;;;;;;13.53;59.08;100259.06;10370348;28;20277;-61
2024/02/12 13:04:28;;;;;;;3.17;2.30;;;;;;;13.51;59.25;100271.88;10370423;28;20812;-61
2024/02/12 13:09:28;;;;;;;4.20;2.43;;;;;;;13.50;59.53;100267.56;10371851;28;20042;-61
2024/02/12 13:14:28;;;;;;;4.03;2.03;;;;;;;13.49;59.16;100263.31;10369647;28;20276;-61
2024/02/12 13:19:29;;;;;;;3.63;2.13;;;;;;;13.46;59.36;100262.81;10368530;28;20025;-61
2024/02/12 13:24:29;;;;;;;3.30;2.00;;;;;;;13.48;59.25;100278.50;10368276;28;20281;-61
2024/02/12 13:29:29;;;;;;;2.63;2.00;;;;;;;13.48;58.71;100281.16;10405046;28;20292;-61
2024/02/12 13:34:30;;;;;;;2.55;1.90;;;;;;;13.48;58.51;100281.16;10372904;28;20292;-60
2024/02/12 13:39:31;;;;;;;4.13;2.22;;;;;;;13.46;59.01;100294.75;10365363;28;20030;-61
2024/02/12 13:44:32;;;;;;;2.77;1.73;;;;;;;13.45;58.88;100295.84;10368719;28;20033;-61
2024/02/12 13:49:33;;;;;;;3.03;2.15;;;;;;;13.46;58.87;100297.44;10368596;28;20284;-61
2024/02/12 13:54:33;;;;;;;2.30;1.53;;;;;;;13.46;58.66;100307.28;10368563;28;20424;-61
2024/02/12 13:59:33;;;;;;;3.33;2.17;;;;;;;13.45;58.90;100306.47;10366753;28;20276;-62
2024/02/12 14:04:34;;;;;;;2.60;1.80;;;;;;;13.44;58.62;100306.75;10367254;28;20733;-61
2024/02/12 14:09:34;;;;;;;3.00;1.80;;;;;;;13.51;59.26;100314.47;10379584;28;20308;-61
2024/02/12 14:14:35;;;;;;;3.58;2.28;;;;;;;13.50;59.69;100328.84;10366349;28;20664;-61
2024/02/12 14:19:39;;;;;;;2.37;1.60;;;;;;;13.50;58.79;100339.50;10366179;28;20100;-61
2024/02/12 14:24:39;;;;;;;3.17;1.65;;;;;;;13.48;58.91;100338.97;10367508;28;20672;-61
2024/02/12 14:29:40;;;;;;;2.83;1.50;;;;;;;13.48;58.92;100341.63;10367342;28;20062;-61
2024/02/12 14:34:41;;;;;;;1.83;1.23;;;;;;;13.48;59.10;100360.28;10367980;28;20752;-61
2024/02/12 14:39:41;;;;;;;2.20;1.40;;;;;;;13.46;58.72;100369.34;10367034;28;20531;-61
2024/02/12 14:44:42;;;;;;;2.40;1.60;;;;;;;13.46;58.71;100379.19;10367019;28;20033;-61
2024/02/12 14:49:44;;;;;;;2.47;1.65;;;;;;;13.46;58.77;100385.31;10366880;28;20025;-62
2024/02/12 14:54:45;;;;;;;3.20;1.80;;;;;;;13.45;58.39;100397.03;10365871;28;20033;-61
2024/02/12 14:59:45;;;;;;;3.72;1.83;;;;;;;13.45;58.92;100396.22;10371772;28;20049;-61
2024/02/12 15:04:46;;;;;;;2.42;1.75;;;;;;;13.43;58.82;100401.84;10357538;28;20040;-61
2024/02/12 15:09:46;;;;;;;2.30;1.30;;;;;;;13.43;58.78;100412.50;10379441;28;20042;-60
2024/02/12 15:14:50;;;;;;;1.70;1.27;;;;;;;13.43;58.84;100423.13;10368367;28;20072;-61
2024/02/12 15:19:51;;;;;;;1.63;1.40;;;;;;;13.42;58.49;100429.53;10373139;28;20342;-61
2024/02/12 15:24:52;;;;;;;1.88;1.35;;;;;;;13.41;58.48;100451.91;10374340;28;20044;-61
2024/02/12 15:29:56;;;;;;;1.75;1.13;;;;;;;13.40;58.81;100446.84;10374203;28;20036;-61
2024/02/12 15:35:05;;;;;;;2.30;1.48;;;;;;;13.43;58.20;100457.75;10400354;28;20040;-61
2024/02/12 15:40:06;;;;;;;3.22;1.25;;;;;;;13.42;58.39;100458.81;10414118;28;20049;-61
2024/02/12 15:45:07;;;;;;;1.92;1.42;;;;;;;13.43;58.48;100460.44;10414440;28;20029;-61
2024/02/12 15:50:11;;;;;;;2.42;1.15;;;;;;;13.44;58.14;100461.22;10413746;28;20465;-62
2024/02/12 15:55:12;;;;;;;2.20;1.20;;;;;;;13.43;58.24;100479.06;10413831;28;20025;-61
2024/02/12 16:00:14;;;;;;;2.13;1.27;;;;;;;13.41;58.40;100486.53;10392370;28;20026;-61
2024/02/12 16:05:52;;;;;;;1.83;1.23;;;;;;;13.42;58.40;100501.44;10372422;28;20041;-61
2024/02/12 16:10:54;;;;;;;2.35;1.30;;;;;;;13.42;58.12;100508.63;10402431;28;20050;-61
2024/02/12 16:15:56;;;;;;;1.88;1.20;;;;;;;13.41;58.50;100509.69;10413301;28;20064;-62
2024/02/12 16:20:56;;;;;;;2.67;1.23;;;;;;;13.39;58.36;100519.81;10411198;28;20366;-61
2024/02/12 16:25:57;;;;;;;2.13;1.33;;;;;;;13.39;58.45;100527.81;10411940;28;20025;-61
2024/02/12 16:31:00;;;;;;;1.63;1.10;;;;;;;13.38;58.46;100531.53;10376953;28;20025;-61
2024/02/12 16:36:00;;;;;;;1.35;0.90;;;;;;;13.38;58.48;100543.00;10378699;28;20026;-61
2024/02/12 16:41:00;;;;;;;3.17;1.97;;;;;;;13.37;58.39;100544.03;10371081;28;20021;-61
2024/02/12 16:46:04;;;;;;;1.73;1.20;;;;;;;13.36;58.23;100545.09;10371151;28;20280;-61
2024/02/12 16:51:04;;;;;;;1.77;1.00;;;;;;;13.36;58.54;100565.59;10370797;28;20030;-61
2024/02/12 16:56:05;;;;;;;2.75;1.35;;;;;;;13.35;58.14;100577.31;10370590;28;20025;-61
2024/02/12 17:01:05;;;;;;;2.03;1.20;;;;;;;13.36;58.23;100589.56;10370588;28;20017;-61
2024/02/12 17:06:07;;;;;;;3.13;1.90;;;;;;;13.37;58.13;100607.13;10388784;28;20514;-61
2024/02/12 17:11:09;;;;;;;1.70;1.17;;;;;;;13.37;58.33;100612.47;10391623;28;20415;-61
2024/02/12 17:16:11;;;;;;;1.88;1.05;;;;;;;13.34;58.46;100619.13;10369801;28;20029;-61
2024/02/12 17:21:15;;;;;;;1.98;1.20;;;;;;;13.34;58.25;100643.09;10367396;28;20030;-61
2024/02/12 17:26:15;;;;;;;1.80;0.95;;;;;;;13.33;58.14;100649.47;10366052;28;20018;-61
2024/02/12 17:31:16;;;;;;;2.42;1.40;;;;;;;13.32;58.13;100649.75;10368599;28;20026;-61
2024/02/12 17:36:17;;;;;;;1.85;1.08;;;;;;;13.34;58.82;100674.25;10367163;28;20022;-61
2024/02/12 17:41:19;;;;;;;1.50;1.10;;;;;;;13.32;58.38;100679.03;10366661;28;20030;-61
2024/02/12 17:46:19;;;;;;;1.92;1.10;;;;;;;13.31;58.28;100683.56;10368159;28;20079;-60
2024/02/12 17:51:19;;;;;;;2.58;1.13;;;;;;;13.30;57.97;100697.13;10393939;28;20025;-59
2024/02/12 17:56:20;;;;;;;1.60;1.15;;;;;;;13.29;58.40;100709.66;10407126;28;20083;-61
2024/02/12 18:01:21;;;;;;;2.10;1.23;;;;;;;13.29;57.93;100717.66;10406889;28;20013;-61
2024/02/12 18:06:22;;;;;;;2.20;1.23;;;;;;;13.29;57.96;100730.97;10405349;28;20292;-61
2024/02/12 18:11:22;;;;;;;1.95;1.20;;;;;;;13.29;57.90;100738.16;10385249;28;20127;-62
2024/02/12 18:16:22;;;;;;;3.20;1.20;;;;;;;13.28;57.90;100742.69;10365660;28;20218;-60
2024/02/12 18:21:24;;;;;;;3.07;1.40;;;;;;;13.29;58.11;100756.78;10365207;28;20268;-61
2024/02/12 18:26:25;;;;;;;3.10;1.20;;;;;;;13.27;57.88;100770.38;10364132;28;20284;-61
2024/02/12 18:31:29;;;;;;;2.75;1.48;;;;;;;13.27;57.75;100774.88;10377659;28;20026;-61
2024/02/12 18:36:29;;;;;;;2.80;0.95;;;;;;;13.26;58.34;100789.22;10377033;28;20041;-61
2024/02/12 18:41:31;;;;;;;2.10;1.30;;;;;;;13.25;57.94;100801.75;10365257;28;20033;-61
2024/02/12 18:46:32;;;;;;;2.55;1.23;;;;;;;13.25;57.46;100801.75;10364876;28;20668;-61
2024/02/12 18:51:32;;;;;;;2.83;1.75;;;;;;;13.25;57.96;100814.25;10367761;28;20030;-61
2024/02/12 18:56:33;;;;;;;2.53;1.03;;;;;;;13.24;58.10;100820.66;10373737;28;20041;-61
2024/02/12 19:01:34;;;;;;;2.13;1.10;;;;;;;13.24;57.76;100826.78;10373058;28;20284;-61
2024/02/12 19:06:34;;;;;;;1.80;0.90;;;;;;;13.23;57.72;100829.69;10372702;28;20052;-61
2024/02/12 19:11:35;;;;;;;3.50;1.02;;;;;;;13.23;57.62;100835.03;10384955;28;20029;-61
2024/02/12 19:16:36;;;;;;;2.03;0.90;;;;;;;13.22;57.77;100846.72;10371814;28;20018;-61
2024/02/12 19:21:36;;;;;;;1.92;1.17;;;;;;;13.21;58.07;100853.13;10372392;28;20264;-60
2024/02/12 19:26:36;;;;;;;2.58;1.75;;;;;;;13.19;57.23;100855.22;10372409;28;20619;-61
2024/02/12 19:31:37;;;;;;;2.85;1.40;;;;;;;13.21;57.40;100864.56;10385627;28;20504;-61
2024/02/12 19:36:39;;;;;;;2.13;1.10;;;;;;;13.20;57.35;100870.16;10398733;28;20100;-60
2024/02/12 19:41:40;;;;;;;3.03;1.40;;;;;;;13.19;57.12;100868.53;10412525;28;20389;-61
2024/02/12 19:46:40;;;;;;;2.28;1.60;;;;;;;13.19;57.28;100890.66;10412204;28;20075;-61
2024/02/12 19:51:41;;;;;;;2.40;1.13;;;;;;;13.18;57.43;100902.31;10393785;28;20084;-61
2024/02/12 19:56:44;;;;;;;2.05;1.10;;;;;;;13.15;56.95;100895.66;10403532;28;20033;-61
2024/02/12 20:01:45;;;;;;;2.17;1.30;;;;;;;13.16;57.33;100910.56;10410017;28;20432;-61
2024/02/12 20:06:46;;;;;;;2.60;1.60;;;;;;;13.14;57.27;100912.69;10411451;28;20064;-60
2024/02/12 20:11:50;;;;;;;1.83;1.10;;;;;;;13.14;57.75;100922.50;10386204;28;20288;-61
2024/02/12 20:16:52;;;;;;;2.60;1.50;;;;;;;13.13;57.08;100932.34;10370214;28;20109;-60
2024/02/12 20:21:54;;;;;;;2.00;1.20;;;;;;;13.13;57.88;100955.50;10369631;28;20036;-61
2024/02/12 20:26:55;;;;;;;1.95;1.20;;;;;;;13.11;57.76;100945.13;10369726;28;20032;-61
2024/02/12 20:31:56;;;;;;;2.90;1.42;;;;;;;13.11;57.53;100953.09;10382412;28;20083;-60
2024/02/12 20:36:56;;;;;;;4.60;1.40;;;;;;;13.11;57.27;100953.09;10400747;28;20072;-61
2024/02/12 20:41:58;;;;;;;2.63;1.50;;;;;;;13.11;57.52;100957.63;10408426;28;20340;-61
2024/02/12 20:47:02;;;;;;;2.92;1.23;;;;;;;13.09;57.06;100960.53;10410289;28;20044;-61
2024/02/12 20:52:04;;;;;;;3.45;1.17;;;;;;;13.10;57.06;100961.34;10408390;28;20124;-61
2024/02/12 20:57:05;;;;;;;1.90;1.15;;;;;;;13.08;57.34;100976.78;10355524;28;20026;-60
2024/02/12 21:02:06;;;;;;;2.25;1.55;;;;;;;13.08;57.51;100984.75;10368143;28;20026;-61
2024/02/12 21:07:06;;;;;;;2.58;1.55;;;;;;;13.06;57.33;100992.19;10367131;28;20046;-61
2024/02/12 21:12:08;;;;;;;2.97;1.80;;;;;;;13.06;57.61;100994.88;10380236;28;20476;-61
2024/02/12 21:17:08;;;;;;;2.85;1.38;;;;;;;13.05;57.51;101003.91;10368051;28;20096;-60
2024/02/12 21:22:09;;;;;;;2.95;1.30;;;;;;;13.05;57.20;101009.22;10366328;28;20032;-60
2024/02/12 21:27:13;;;;;;;2.15;1.23;;;;;;;13.03;56.94;101006.81;10366322;28;20037;-60
2024/02/12 21:32:14;;;;;;;2.85;1.67;;;;;;;13.02;57.65;101018.53;10367031;28;20026;-60
2024/02/12 21:37:17;;;;;;;4.00;1.88;;;;;;;13.02;57.04;101021.19;10367338;28;20109;-61
2024/02/12 21:42:25;;;;;;;2.13;1.45;;;;;;;13.02;57.21;101020.34;10366051;28;20377;-61
2024/02/12 21:47:25;;;;;;;4.72;1.75;;;;;;;13.02;57.11;101036.31;10366053;28;20034;-61
2024/02/12 21:52:26;;;;;;;2.75;1.70;;;;;;;13.01;56.73;101026.72;10365394;28;20436;-60
2024/02/12 21:57:26;;;;;;;3.00;1.40;;;;;;;13.00;57.10;101031.25;10365058;28;20374;-60
2024/02/12 22:02:27;;;;;;;3.17;1.57;;;;;;;12.99;57.26;101020.88;10364841;28;20032;-60
2024/02/12 22:07:29;;;;;;;2.45;1.50;;;;;;;12.98;56.95;101029.91;10368091;28;20304;-60
2024/02/12 22:12:30;;;;;;;3.35;1.60;;;;;;;12.97;56.99;101039.75;10375051;28;20057;-61
2024/02/12 22:17:30;;;;;;;2.92;1.77;;;;;;;12.97;56.71;101036.28;10366102;28;20434;-61
2024/02/12 22:22:30;;;;;;;2.40;1.83;;;;;;;12.96;57.11;101045.31;10365448;28;20468;-60
2024/02/12 22:27:31;;;;;;;2.77;1.70;;;;;;;12.95;56.42;101049.84;10363668;28;20284;-60
2024/02/12 22:32:32;;;;;;;3.42;1.73;;;;;;;12.95;56.96;101068.47;10365647;28;20707;-60
2024/02/12 22:37:32;;;;;;;2.47;1.80;;;;;;;12.93;57.09;101075.09;10365436;28;20061;-61
2024/02/12 22:42:33;;;;;;;3.37;1.83;;;;;;;12.92;57.03;101084.94;10364843;28;20072;-61
2024/02/12 22:47:33;;;;;;;3.47;1.80;;;;;;;12.94;56.17;101090.03;10365778;28;20395;-61
2024/02/12 22:52:33;;;;;;;3.10;1.98;;;;;;;12.92;56.80;101100.91;10365138;28;20308;-60
2024/02/12 22:57:34;;;;;;;4.53;1.43;;;;;;;12.90;56.88;101103.00;10364944;28;20025;-61
2024/02/12 23:02:34;;;;;;;2.72;1.60;;;;;;;12.89;56.83;101107.50;10364382;28;20261;-61
2024/02/12 23:07:34;;;;;;;3.05;1.48;;;;;;;12.88;57.15;101108.56;10366273;28;20103;-60
2024/02/12 23:12:35;;;;;;;2.78;1.88;;;;;;;12.89;56.28;101110.19;10373407;28;20036;-61
2024/02/12 23:17:36;;;;;;;3.45;1.63;;;;;;;12.87;56.18;101114.94;10363378;28;20033;-60
2024/02/12 23:22:37;;;;;;;6.68;2.17;;;;;;;12.87;56.97;101125.59;10364503;28;20022;-61
2024/02/12 23:27:38;;;;;;;4.57;2.15;;;;;;;12.85;56.59;101117.06;10364635;28;20030;-60